sensor_id;sensor_type;location;lat;lon;timestamp;P1;durP1;ratioP1;P2;durP2;ratioP2
21101;SDS011;10709;49.006;12.100;2024-03-29T00:00:26;3.03;;;2.50;;
21101;SDS011;10709;49.006;12.100;2024-03-29T00:02:53;3.87;;;2.63;;
21101;SDS011;10709;49.006;12.100;2024-03-29T00:05:18;3.40;;;2.60;;
21101;SDS011;10709;49.006;12.100;2024-03-29T00:07:45;4.23;;;2.53;;
21101;SDS011;10709;49.006;12.100;2024-03-29T00:10:10;3.27;;;2.70;;
21101;SDS011;10709;49.006;12.100;2024-03-29T00:12:36;3.27;;;2.63;;
21101;SDS011;10709;49.006;12.100;2024-03-29T00:15:01;3.23;;;2.70;;
21101;SDS011;10709;49.006;12.100;2024-03-29T00:17:28;4.63;;;2.67;;
21101;SDS011;10709;49.006;12.100;2024-03-29T00:19:53;4.37;;;2.83;;
21101;SDS011;10709;49.006;12.100;2024-03-29T00:22:20;4.00;;;2.80;;
21101;SDS011;10709;49.006;12.100;2024-03-29T00:24:46;3.23;;;2.50;;
21101;SDS011;10709;49.006;12.100;2024-03-29T00:27:11;3.43;;;2.67;;
21101;SDS011;10709;49.006;12.100;2024-03-29T00:29:37;3.40;;;2.77;;
21101;SDS011;10709;49.006;12.100;2024-03-29T00:32:02;3.77;;;2.83;;
21101;SDS011;10709;49.006;12.100;2024-03-29T00:34:30;5.50;;;2.87;;
21101;SDS011;10709;49.006;12.100;2024-03-29T00:36:56;4.50;;;2.90;;
21101;SDS011;10709;49.006;12.100;2024-03-29T00:39:21;3.30;;;2.90;;
21101;SDS011;10709;49.006;12.100;2024-03-29T00:41:47;3.40;;;2.70;;
21101;SDS011;10709;49.006;12.100;2024-03-29T00:44:13;3.20;;;2.43;;
21101;SDS011;10709;49.006;12.100;2024-03-29T00:46:39;3.57;;;3.00;;
21101;SDS011;10709;49.006;12.100;2024-03-29T00:49:05;3.33;;;2.83;;
21101;SDS011;10709;49.006;12.100;2024-03-29T00:51:30;5.80;;;2.97;;
21101;SDS011;10709;49.006;12.100;2024-03-29T00:53:56;4.00;;;3.20;;
21101;SDS011;10709;49.006;12.100;2024-03-29T00:56:21;3.57;;;2.70;;
21101;SDS011;10709;49.006;12.100;2024-03-29T00:58:47;4.27;;;3.17;;
21101;SDS011;10709;49.006;12.100;2024-03-29T01:01:12;4.27;;;3.07;;
21101;SDS011;10709;49.006;12.100;2024-03-29T01:03:38;3.47;;;2.90;;
21101;SDS011;10709;49.006;12.100;2024-03-29T01:06:04;3.73;;;2.90;;
21101;SDS011;10709;49.006;12.100;2024-03-29T01:08:30;3.40;;;2.87;;
21101;SDS011;10709;49.006;12.100;2024-03-29T01:10:56;4.57;;;3.00;;
21101;SDS011;10709;49.006;12.100;2024-03-29T01:13:22;3.83;;;2.77;;
21101;SDS011;10709;49.006;12.100;2024-03-29T01:15:48;3.20;;;2.90;;
21101;SDS011;10709;49.006;12.100;2024-03-29T01:18:13;4.10;;;2.87;;
21101;SDS011;10709;49.006;12.100;2024-03-29T01:20:39;3.93;;;3.03;;
21101;SDS011;10709;49.006;12.100;2024-03-29T01:23:04;3.27;;;2.80;;
21101;SDS011;10709;49.006;12.100;2024-03-29T01:25:30;4.30;;;2.90;;
21101;SDS011;10709;49.006;12.100;2024-03-29T01:27:56;4.30;;;2.90;;
21101;SDS011;10709;49.006;12.100;2024-03-29T01:30:21;3.33;;;2.83;;
21101;SDS011;10709;49.006;12.100;2024-03-29T01:32:47;4.13;;;2.93;;
21101;SDS011;10709;49.006;12.100;2024-03-29T01:35:13;3.30;;;2.80;;
21101;SDS011;10709;49.006;12.100;2024-03-29T01:37:38;3.00;;;2.63;;
21101;SDS011;10709;49.006;12.100;2024-03-29T01:40:04;3.40;;;3.00;;
21101;SDS011;10709;49.006;12.100;2024-03-29T01:42:30;3.00;;;2.70;;
21101;SDS011;10709;49.006;12.100;2024-03-29T01:44:56;3.90;;;2.90;;
21101;SDS011;10709;49.006;12.100;2024-03-29T01:47:21;4.33;;;2.70;;
21101;SDS011;10709;49.006;12.100;2024-03-29T01:49:47;3.03;;;2.57;;
21101;SDS011;10709;49.006;12.100;2024-03-29T01:52:14;2.70;;;2.43;;
21101;SDS011;10709;49.006;12.100;2024-03-29T01:54:42;3.57;;;2.40;;
21101;SDS011;10709;49.006;12.100;2024-03-29T01:57:09;3.40;;;2.70;;
21101;SDS011;10709;49.006;12.100;2024-03-29T01:59:36;4.63;;;2.70;;
21101;SDS011;10709;49.006;12.100;2024-03-29T02:02:03;3.10;;;2.80;;
21101;SDS011;10709;49.006;12.100;2024-03-29T02:04:28;3.20;;;2.70;;
21101;SDS011;10709;49.006;12.100;2024-03-29T02:06:54;4.10;;;2.40;;
21101;SDS011;10709;49.006;12.100;2024-03-29T02:09:20;3.47;;;2.60;;
21101;SDS011;10709;49.006;12.100;2024-03-29T02:11:47;3.63;;;2.30;;
21101;SDS011;10709;49.006;12.100;2024-03-29T02:14:12;3.80;;;2.20;;
21101;SDS011;10709;49.006;12.100;2024-03-29T02:16:38;3.37;;;2.03;;
21101;SDS011;10709;49.006;12.100;2024-03-29T02:19:05;4.63;;;2.27;;
21101;SDS011;10709;49.006;12.100;2024-03-29T02:21:32;2.63;;;2.20;;
21101;SDS011;10709;49.006;12.100;2024-03-29T02:24:08;4.13;;;2.37;;
21101;SDS011;10709;49.006;12.100;2024-03-29T02:26:34;2.30;;;1.90;;
21101;SDS011;10709;49.006;12.100;2024-03-29T02:29:02;3.13;;;2.00;;
21101;SDS011;10709;49.006;12.100;2024-03-29T02:31:28;3.27;;;1.97;;
21101;SDS011;10709;49.006;12.100;2024-03-29T02:33:54;2.57;;;2.20;;
21101;SDS011;10709;49.006;12.100;2024-03-29T02:36:20;2.73;;;2.03;;
21101;SDS011;10709;49.006;12.100;2024-03-29T02:38:46;3.47;;;1.93;;
21101;SDS011;10709;49.006;12.100;2024-03-29T02:41:11;2.77;;;2.10;;
21101;SDS011;10709;49.006;12.100;2024-03-29T02:43:37;2.83;;;1.90;;
21101;SDS011;10709;49.006;12.100;2024-03-29T02:46:03;3.03;;;2.23;;
21101;SDS011;10709;49.006;12.100;2024-03-29T02:48:29;3.80;;;2.10;;
21101;SDS011;10709;49.006;12.100;2024-03-29T02:50:55;2.20;;;1.80;;
21101;SDS011;10709;49.006;12.100;2024-03-29T02:53:21;2.17;;;1.90;;
21101;SDS011;10709;49.006;12.100;2024-03-29T02:55:46;2.60;;;2.00;;
21101;SDS011;10709;49.006;12.100;2024-03-29T02:58:12;3.57;;;2.03;;
21101;SDS011;10709;49.006;12.100;2024-03-29T03:00:37;2.83;;;1.60;;
21101;SDS011;10709;49.006;12.100;2024-03-29T03:03:04;2.73;;;2.00;;
21101;SDS011;10709;49.006;12.100;2024-03-29T03:05:30;2.53;;;1.80;;
21101;SDS011;10709;49.006;12.100;2024-03-29T03:07:55;2.53;;;1.70;;
21101;SDS011;10709;49.006;12.100;2024-03-29T03:10:46;2.60;;;1.80;;
21101;SDS011;10709;49.006;12.100;2024-03-29T03:13:28;2.27;;;1.57;;
21101;SDS011;10709;49.006;12.100;2024-03-29T03:15:55;2.00;;;1.60;;
21101;SDS011;10709;49.006;12.100;2024-03-29T03:18:21;2.03;;;1.73;;
21101;SDS011;10709;49.006;12.100;2024-03-29T03:20:53;1.80;;;1.50;;
21101;SDS011;10709;49.006;12.100;2024-03-29T03:23:20;1.97;;;1.47;;
21101;SDS011;10709;49.006;12.100;2024-03-29T03:25:46;2.33;;;1.80;;
21101;SDS011;10709;49.006;12.100;2024-03-29T03:28:18;3.70;;;1.70;;
21101;SDS011;10709;49.006;12.100;2024-03-29T03:30:44;2.23;;;1.80;;
21101;SDS011;10709;49.006;12.100;2024-03-29T03:33:09;2.37;;;1.60;;
21101;SDS011;10709;49.006;12.100;2024-03-29T03:35:35;2.70;;;1.83;;
21101;SDS011;10709;49.006;12.100;2024-03-29T03:38:00;1.80;;;1.60;;
21101;SDS011;10709;49.006;12.100;2024-03-29T03:40:26;2.00;;;1.70;;
21101;SDS011;10709;49.006;12.100;2024-03-29T03:42:51;2.13;;;1.67;;
21101;SDS011;10709;49.006;12.100;2024-03-29T03:45:17;2.50;;;1.90;;
21101;SDS011;10709;49.006;12.100;2024-03-29T03:47:42;2.17;;;1.70;;
21101;SDS011;10709;49.006;12.100;2024-03-29T03:50:09;2.20;;;1.60;;
21101;SDS011;10709;49.006;12.100;2024-03-29T03:52:35;2.53;;;1.50;;
21101;SDS011;10709;49.006;12.100;2024-03-29T03:55:01;2.10;;;1.90;;
21101;SDS011;10709;49.006;12.100;2024-03-29T03:57:26;2.10;;;1.80;;
21101;SDS011;10709;49.006;12.100;2024-03-29T03:59:52;3.10;;;1.93;;
21101;SDS011;10709;49.006;12.100;2024-03-29T04:02:17;3.03;;;1.97;;
21101;SDS011;10709;49.006;12.100;2024-03-29T04:04:46;2.00;;;1.80;;
21101;SDS011;10709;49.006;12.100;2024-03-29T04:07:12;3.10;;;2.00;;
21101;SDS011;10709;49.006;12.100;2024-03-29T04:09:38;2.10;;;1.90;;
21101;SDS011;10709;49.006;12.100;2024-03-29T04:12:03;2.80;;;1.83;;
21101;SDS011;10709;49.006;12.100;2024-03-29T04:14:29;3.13;;;2.10;;
21101;SDS011;10709;49.006;12.100;2024-03-29T04:16:55;2.97;;;2.00;;
21101;SDS011;10709;49.006;12.100;2024-03-29T04:19:20;2.27;;;1.83;;
21101;SDS011;10709;49.006;12.100;2024-03-29T04:21:52;3.13;;;2.10;;
21101;SDS011;10709;49.006;12.100;2024-03-29T04:24:18;3.10;;;2.40;;
21101;SDS011;10709;49.006;12.100;2024-03-29T04:26:45;3.00;;;2.27;;
21101;SDS011;10709;49.006;12.100;2024-03-29T04:29:13;4.50;;;2.40;;
21101;SDS011;10709;49.006;12.100;2024-03-29T04:31:39;2.90;;;2.40;;
21101;SDS011;10709;49.006;12.100;2024-03-29T04:34:05;2.20;;;2.00;;
21101;SDS011;10709;49.006;12.100;2024-03-29T04:36:31;3.27;;;2.20;;
21101;SDS011;10709;49.006;12.100;2024-03-29T04:38:57;3.20;;;2.00;;
21101;SDS011;10709;49.006;12.100;2024-03-29T04:41:22;4.57;;;1.90;;
21101;SDS011;10709;49.006;12.100;2024-03-29T04:43:49;3.87;;;2.07;;
21101;SDS011;10709;49.006;12.100;2024-03-29T04:46:15;2.63;;;2.20;;
21101;SDS011;10709;49.006;12.100;2024-03-29T04:48:41;2.63;;;2.27;;
21101;SDS011;10709;49.006;12.100;2024-03-29T04:51:09;2.93;;;2.23;;
21101;SDS011;10709;49.006;12.100;2024-03-29T04:53:36;2.80;;;2.30;;
21101;SDS011;10709;49.006;12.100;2024-03-29T04:56:03;2.83;;;2.30;;
21101;SDS011;10709;49.006;12.100;2024-03-29T04:58:30;2.87;;;2.00;;
21101;SDS011;10709;49.006;12.100;2024-03-29T05:00:58;2.57;;;2.30;;
21101;SDS011;10709;49.006;12.100;2024-03-29T05:03:24;2.37;;;2.10;;
21101;SDS011;10709;49.006;12.100;2024-03-29T05:05:51;3.00;;;2.00;;
21101;SDS011;10709;49.006;12.100;2024-03-29T05:08:17;4.40;;;2.50;;
21101;SDS011;10709;49.006;12.100;2024-03-29T05:10:48;2.90;;;2.30;;
21101;SDS011;10709;49.006;12.100;2024-03-29T05:13:15;2.53;;;2.10;;
21101;SDS011;10709;49.006;12.100;2024-03-29T05:15:42;2.20;;;2.00;;
21101;SDS011;10709;49.006;12.100;2024-03-29T05:18:08;2.50;;;2.20;;
21101;SDS011;10709;49.006;12.100;2024-03-29T05:20:33;3.40;;;2.10;;
21101;SDS011;10709;49.006;12.100;2024-03-29T05:22:59;2.60;;;2.20;;
21101;SDS011;10709;49.006;12.100;2024-03-29T05:25:25;2.60;;;2.40;;
21101;SDS011;10709;49.006;12.100;2024-03-29T05:27:51;2.97;;;2.53;;
21101;SDS011;10709;49.006;12.100;2024-03-29T05:30:17;2.60;;;2.20;;
21101;SDS011;10709;49.006;12.100;2024-03-29T05:32:44;2.73;;;2.40;;
21101;SDS011;10709;49.006;12.100;2024-03-29T05:35:09;2.70;;;2.37;;
21101;SDS011;10709;49.006;12.100;2024-03-29T05:37:36;3.83;;;2.43;;
21101;SDS011;10709;49.006;12.100;2024-03-29T05:40:02;3.33;;;2.30;;
21101;SDS011;10709;49.006;12.100;2024-03-29T05:42:31;2.67;;;2.47;;
21101;SDS011;10709;49.006;12.100;2024-03-29T05:45:00;3.10;;;2.30;;
21101;SDS011;10709;49.006;12.100;2024-03-29T05:47:26;3.60;;;2.40;;
21101;SDS011;10709;49.006;12.100;2024-03-29T05:49:53;2.60;;;2.20;;
21101;SDS011;10709;49.006;12.100;2024-03-29T05:52:19;2.80;;;2.33;;
21101;SDS011;10709;49.006;12.100;2024-03-29T05:54:45;2.30;;;2.10;;
21101;SDS011;10709;49.006;12.100;2024-03-29T05:57:12;3.07;;;2.30;;
21101;SDS011;10709;49.006;12.100;2024-03-29T05:59:37;3.53;;;2.20;;
21101;SDS011;10709;49.006;12.100;2024-03-29T06:02:04;2.60;;;2.20;;
21101;SDS011;10709;49.006;12.100;2024-03-29T06:04:30;3.50;;;2.83;;
21101;SDS011;10709;49.006;12.100;2024-03-29T06:06:59;3.17;;;2.40;;
21101;SDS011;10709;49.006;12.100;2024-03-29T06:09:25;2.93;;;2.50;;
21101;SDS011;10709;49.006;12.100;2024-03-29T06:11:51;2.90;;;2.60;;
21101;SDS011;10709;49.006;12.100;2024-03-29T06:14:17;3.10;;;2.80;;
21101;SDS011;10709;49.006;12.100;2024-03-29T06:17:01;3.77;;;2.93;;
21101;SDS011;10709;49.006;12.100;2024-03-29T06:19:45;3.57;;;3.20;;
21101;SDS011;10709;49.006;12.100;2024-03-29T06:22:11;3.77;;;2.77;;
21101;SDS011;10709;49.006;12.100;2024-03-29T06:24:38;3.57;;;3.00;;
21101;SDS011;10709;49.006;12.100;2024-03-29T06:27:05;4.73;;;3.23;;
21101;SDS011;10709;49.006;12.100;2024-03-29T06:29:32;3.03;;;2.73;;
21101;SDS011;10709;49.006;12.100;2024-03-29T06:31:59;4.30;;;3.50;;
21101;SDS011;10709;49.006;12.100;2024-03-29T06:34:24;4.10;;;3.13;;
21101;SDS011;10709;49.006;12.100;2024-03-29T06:36:51;4.73;;;3.37;;
21101;SDS011;10709;49.006;12.100;2024-03-29T06:39:17;3.90;;;3.00;;
21101;SDS011;10709;49.006;12.100;2024-03-29T06:41:43;3.80;;;2.97;;
21101;SDS011;10709;49.006;12.100;2024-03-29T06:44:09;3.30;;;2.73;;
21101;SDS011;10709;49.006;12.100;2024-03-29T06:46:34;3.60;;;2.97;;
21101;SDS011;10709;49.006;12.100;2024-03-29T06:49:01;4.90;;;3.00;;
21101;SDS011;10709;49.006;12.100;2024-03-29T06:51:28;3.10;;;2.80;;
21101;SDS011;10709;49.006;12.100;2024-03-29T06:53:53;4.07;;;3.00;;
21101;SDS011;10709;49.006;12.100;2024-03-29T06:56:19;3.67;;;3.00;;
21101;SDS011;10709;49.006;12.100;2024-03-29T06:58:45;4.63;;;3.40;;
21101;SDS011;10709;49.006;12.100;2024-03-29T07:01:10;3.50;;;3.00;;
21101;SDS011;10709;49.006;12.100;2024-03-29T07:03:36;5.37;;;3.33;;
21101;SDS011;10709;49.006;12.100;2024-03-29T07:06:01;4.67;;;3.07;;
21101;SDS011;10709;49.006;12.100;2024-03-29T07:08:28;4.90;;;3.03;;
21101;SDS011;10709;49.006;12.100;2024-03-29T07:10:59;4.30;;;3.37;;
21101;SDS011;10709;49.006;12.100;2024-03-29T07:13:30;3.87;;;3.00;;
21101;SDS011;10709;49.006;12.100;2024-03-29T07:15:59;3.57;;;3.00;;
21101;SDS011;10709;49.006;12.100;2024-03-29T07:18:30;4.67;;;3.47;;
21101;SDS011;10709;49.006;12.100;2024-03-29T07:20:56;4.93;;;3.63;;
21101;SDS011;10709;49.006;12.100;2024-03-29T07:23:21;4.43;;;3.40;;
21101;SDS011;10709;49.006;12.100;2024-03-29T07:25:57;4.60;;;3.03;;
21101;SDS011;10709;49.006;12.100;2024-03-29T07:28:27;4.50;;;3.30;;
21101;SDS011;10709;49.006;12.100;2024-03-29T07:30:54;4.43;;;3.40;;
21101;SDS011;10709;49.006;12.100;2024-03-29T07:33:20;4.33;;;3.40;;
21101;SDS011;10709;49.006;12.100;2024-03-29T07:35:55;4.27;;;3.70;;
21101;SDS011;10709;49.006;12.100;2024-03-29T07:38:21;4.30;;;3.70;;
21101;SDS011;10709;49.006;12.100;2024-03-29T07:40:47;5.47;;;3.53;;
21101;SDS011;10709;49.006;12.100;2024-03-29T07:43:13;3.67;;;3.20;;
21101;SDS011;10709;49.006;12.100;2024-03-29T07:45:42;4.90;;;3.50;;
21101;SDS011;10709;49.006;12.100;2024-03-29T07:48:11;4.83;;;3.80;;
21101;SDS011;10709;49.006;12.100;2024-03-29T07:50:39;6.13;;;3.70;;
21101;SDS011;10709;49.006;12.100;2024-03-29T07:53:11;4.67;;;3.70;;
21101;SDS011;10709;49.006;12.100;2024-03-29T07:55:39;5.97;;;3.50;;
21101;SDS011;10709;49.006;12.100;2024-03-29T07:58:09;5.23;;;3.27;;
21101;SDS011;10709;49.006;12.100;2024-03-29T08:00:38;3.40;;;3.00;;
21101;SDS011;10709;49.006;12.100;2024-03-29T08:03:06;4.10;;;3.30;;
21101;SDS011;10709;49.006;12.100;2024-03-29T08:05:32;4.37;;;3.17;;
21101;SDS011;10709;49.006;12.100;2024-03-29T08:07:59;4.37;;;3.30;;
21101;SDS011;10709;49.006;12.100;2024-03-29T08:10:24;4.10;;;3.17;;
21101;SDS011;10709;49.006;12.100;2024-03-29T08:12:50;5.53;;;3.50;;
21101;SDS011;10709;49.006;12.100;2024-03-29T08:15:17;3.83;;;3.00;;
21101;SDS011;10709;49.006;12.100;2024-03-29T08:17:43;3.63;;;3.03;;
21101;SDS011;10709;49.006;12.100;2024-03-29T08:20:10;4.90;;;3.30;;
21101;SDS011;10709;49.006;12.100;2024-03-29T08:22:36;4.20;;;3.20;;
21101;SDS011;10709;49.006;12.100;2024-03-29T08:25:01;3.97;;;3.10;;
21101;SDS011;10709;49.006;12.100;2024-03-29T08:27:28;4.63;;;3.20;;
21101;SDS011;10709;49.006;12.100;2024-03-29T08:29:54;4.53;;;3.37;;
21101;SDS011;10709;49.006;12.100;2024-03-29T08:32:21;4.33;;;3.10;;
21101;SDS011;10709;49.006;12.100;2024-03-29T08:34:51;5.77;;;3.43;;
21101;SDS011;10709;49.006;12.100;2024-03-29T08:37:19;4.37;;;2.90;;
21101;SDS011;10709;49.006;12.100;2024-03-29T08:39:47;5.30;;;3.10;;
21101;SDS011;10709;49.006;12.100;2024-03-29T08:42:12;5.33;;;3.00;;
21101;SDS011;10709;49.006;12.100;2024-03-29T08:44:38;5.00;;;3.17;;
21101;SDS011;10709;49.006;12.100;2024-03-29T08:47:04;4.33;;;3.33;;
21101;SDS011;10709;49.006;12.100;2024-03-29T08:49:31;3.50;;;2.80;;
21101;SDS011;10709;49.006;12.100;2024-03-29T08:51:58;4.17;;;2.90;;
21101;SDS011;10709;49.006;12.100;2024-03-29T08:54:25;4.33;;;2.80;;
21101;SDS011;10709;49.006;12.100;2024-03-29T08:56:53;3.10;;;2.70;;
21101;SDS011;10709;49.006;12.100;2024-03-29T08:59:18;3.23;;;2.80;;
21101;SDS011;10709;49.006;12.100;2024-03-29T09:01:44;6.63;;;2.73;;
21101;SDS011;10709;49.006;12.100;2024-03-29T09:04:11;3.30;;;2.83;;
21101;SDS011;10709;49.006;12.100;2024-03-29T09:06:39;4.23;;;2.87;;
21101;SDS011;10709;49.006;12.100;2024-03-29T09:09:05;4.13;;;2.70;;
21101;SDS011;10709;49.006;12.100;2024-03-29T09:11:31;4.23;;;2.53;;
21101;SDS011;10709;49.006;12.100;2024-03-29T09:13:57;3.67;;;2.57;;
21101;SDS011;10709;49.006;12.100;2024-03-29T09:16:24;4.10;;;2.57;;
21101;SDS011;10709;49.006;12.100;2024-03-29T09:18:51;3.47;;;2.60;;
21101;SDS011;10709;49.006;12.100;2024-03-29T09:21:20;5.73;;;2.87;;
21101;SDS011;10709;49.006;12.100;2024-03-29T09:23:46;3.83;;;2.70;;
21101;SDS011;10709;49.006;12.100;2024-03-29T09:26:14;3.23;;;2.50;;
21101;SDS011;10709;49.006;12.100;2024-03-29T09:28:40;4.97;;;2.60;;
21101;SDS011;10709;49.006;12.100;2024-03-29T09:31:06;4.60;;;2.53;;
21101;SDS011;10709;49.006;12.100;2024-03-29T09:33:32;6.13;;;2.90;;
21101;SDS011;10709;49.006;12.100;2024-03-29T09:35:59;5.03;;;2.63;;
21101;SDS011;10709;49.006;12.100;2024-03-29T09:38:25;3.13;;;2.60;;
21101;SDS011;10709;49.006;12.100;2024-03-29T09:40:56;2.93;;;2.37;;
21101;SDS011;10709;49.006;12.100;2024-03-29T09:43:29;3.93;;;2.70;;
21101;SDS011;10709;49.006;12.100;2024-03-29T09:45:55;2.80;;;2.10;;
21101;SDS011;10709;49.006;12.100;2024-03-29T09:48:21;2.77;;;2.37;;
21101;SDS011;10709;49.006;12.100;2024-03-29T09:50:48;4.40;;;2.23;;
21101;SDS011;10709;49.006;12.100;2024-03-29T09:53:16;4.33;;;2.20;;
21101;SDS011;10709;49.006;12.100;2024-03-29T09:55:46;4.17;;;2.60;;
21101;SDS011;10709;49.006;12.100;2024-03-29T09:58:12;3.00;;;2.33;;
21101;SDS011;10709;49.006;12.100;2024-03-29T10:00:38;4.33;;;2.47;;
21101;SDS011;10709;49.006;12.100;2024-03-29T10:03:04;4.13;;;2.03;;
21101;SDS011;10709;49.006;12.100;2024-03-29T10:05:31;3.53;;;2.40;;
21101;SDS011;10709;49.006;12.100;2024-03-29T10:07:57;2.50;;;1.73;;
21101;SDS011;10709;49.006;12.100;2024-03-29T10:10:30;2.80;;;1.90;;
21101;SDS011;10709;49.006;12.100;2024-03-29T10:12:57;2.37;;;1.77;;
21101;SDS011;10709;49.006;12.100;2024-03-29T10:15:23;2.27;;;1.80;;
21101;SDS011;10709;49.006;12.100;2024-03-29T10:17:51;2.83;;;1.43;;
21101;SDS011;10709;49.006;12.100;2024-03-29T10:20:18;2.23;;;1.70;;
21101;SDS011;10709;49.006;12.100;2024-03-29T10:22:45;2.27;;;1.63;;
21101;SDS011;10709;49.006;12.100;2024-03-29T10:25:15;3.37;;;1.80;;
21101;SDS011;10709;49.006;12.100;2024-03-29T10:27:41;1.87;;;1.40;;
21101;SDS011;10709;49.006;12.100;2024-03-29T10:30:07;2.27;;;1.43;;
21101;SDS011;10709;49.006;12.100;2024-03-29T10:32:34;2.10;;;1.70;;
21101;SDS011;10709;49.006;12.100;2024-03-29T10:35:02;3.77;;;1.40;;
21101;SDS011;10709;49.006;12.100;2024-03-29T10:37:29;3.23;;;1.43;;
21101;SDS011;10709;49.006;12.100;2024-03-29T10:39:58;2.20;;;1.50;;
21101;SDS011;10709;49.006;12.100;2024-03-29T10:42:23;1.40;;;1.30;;
21101;SDS011;10709;49.006;12.100;2024-03-29T10:44:50;1.90;;;1.40;;
21101;SDS011;10709;49.006;12.100;2024-03-29T10:47:18;2.47;;;1.50;;
21101;SDS011;10709;49.006;12.100;2024-03-29T10:49:49;2.73;;;1.33;;
21101;SDS011;10709;49.006;12.100;2024-03-29T10:52:22;2.00;;;1.43;;
21101;SDS011;10709;49.006;12.100;2024-03-29T10:54:49;2.17;;;1.33;;
21101;SDS011;10709;49.006;12.100;2024-03-29T10:57:24;2.90;;;1.40;;
21101;SDS011;10709;49.006;12.100;2024-03-29T11:05:28;2.03;;;1.57;;
21101;SDS011;10709;49.006;12.100;2024-03-29T11:07:55;2.47;;;1.40;;
21101;SDS011;10709;49.006;12.100;2024-03-29T11:10:25;1.90;;;1.30;;
21101;SDS011;10709;49.006;12.100;2024-03-29T11:15:41;1.50;;;1.30;;
21101;SDS011;10709;49.006;12.100;2024-03-29T11:18:09;2.43;;;1.30;;
21101;SDS011;10709;49.006;12.100;2024-03-29T11:20:36;2.37;;;1.40;;
21101;SDS011;10709;49.006;12.100;2024-03-29T11:23:09;3.60;;;1.47;;
21101;SDS011;10709;49.006;12.100;2024-03-29T11:25:59;1.50;;;1.20;;
21101;SDS011;10709;49.006;12.100;2024-03-29T11:28:34;1.70;;;1.10;;
21101;SDS011;10709;49.006;12.100;2024-03-29T11:36:12;2.60;;;1.40;;
21101;SDS011;10709;49.006;12.100;2024-03-29T11:38:56;2.07;;;1.60;;
21101;SDS011;10709;49.006;12.100;2024-03-29T11:41:23;3.17;;;1.50;;
21101;SDS011;10709;49.006;12.100;2024-03-29T11:43:50;1.97;;;1.47;;
21101;SDS011;10709;49.006;12.100;2024-03-29T11:46:16;2.43;;;1.40;;
21101;SDS011;10709;49.006;12.100;2024-03-29T11:48:43;1.93;;;1.30;;
21101;SDS011;10709;49.006;12.100;2024-03-29T11:51:15;1.70;;;1.30;;
21101;SDS011;10709;49.006;12.100;2024-03-29T11:53:42;2.03;;;1.60;;
21101;SDS011;10709;49.006;12.100;2024-03-29T11:56:08;2.83;;;1.47;;
21101;SDS011;10709;49.006;12.100;2024-03-29T11:58:35;2.40;;;1.50;;
21101;SDS011;10709;49.006;12.100;2024-03-29T12:01:01;1.63;;;1.43;;
21101;SDS011;10709;49.006;12.100;2024-03-29T12:03:28;2.70;;;1.47;;
21101;SDS011;10709;49.006;12.100;2024-03-29T12:05:56;2.30;;;1.50;;
21101;SDS011;10709;49.006;12.100;2024-03-29T12:08:29;3.03;;;1.60;;
21101;SDS011;10709;49.006;12.100;2024-03-29T12:10:59;2.33;;;1.80;;
21101;SDS011;10709;49.006;12.100;2024-03-29T12:13:26;1.93;;;1.40;;
21101;SDS011;10709;49.006;12.100;2024-03-29T12:15:54;2.10;;;1.40;;
21101;SDS011;10709;49.006;12.100;2024-03-29T12:18:20;1.37;;;1.27;;
21101;SDS011;10709;49.006;12.100;2024-03-29T12:20:47;2.87;;;1.87;;
21101;SDS011;10709;49.006;12.100;2024-03-29T12:23:18;3.63;;;1.67;;
21101;SDS011;10709;49.006;12.100;2024-03-29T12:25:45;2.57;;;1.80;;
21101;SDS011;10709;49.006;12.100;2024-03-29T12:28:12;2.33;;;1.67;;
21101;SDS011;10709;49.006;12.100;2024-03-29T12:30:40;3.00;;;1.60;;
21101;SDS011;10709;49.006;12.100;2024-03-29T12:33:07;1.60;;;1.30;;
21101;SDS011;10709;49.006;12.100;2024-03-29T12:35:36;1.87;;;1.60;;
21101;SDS011;10709;49.006;12.100;2024-03-29T12:38:03;2.40;;;1.73;;
21101;SDS011;10709;49.006;12.100;2024-03-29T12:40:32;2.57;;;1.57;;
21101;SDS011;10709;49.006;12.100;2024-03-29T12:43:04;2.37;;;1.70;;
21101;SDS011;10709;49.006;12.100;2024-03-29T12:45:31;2.97;;;1.70;;
21101;SDS011;10709;49.006;12.100;2024-03-29T12:47:57;3.13;;;1.90;;
21101;SDS011;10709;49.006;12.100;2024-03-29T12:52:48;2.67;;;2.10;;
21101;SDS011;10709;49.006;12.100;2024-03-29T12:55:14;2.17;;;1.90;;
21101;SDS011;10709;49.006;12.100;2024-03-29T12:57:44;2.90;;;2.17;;
21101;SDS011;10709;49.006;12.100;2024-03-29T13:00:11;2.70;;;2.13;;
21101;SDS011;10709;49.006;12.100;2024-03-29T13:02:38;2.30;;;1.77;;
21101;SDS011;10709;49.006;12.100;2024-03-29T13:05:04;2.70;;;2.03;;
21101;SDS011;10709;49.006;12.100;2024-03-29T13:07:30;2.50;;;1.60;;
21101;SDS011;10709;49.006;12.100;2024-03-29T13:09:57;3.03;;;2.10;;
21101;SDS011;10709;49.006;12.100;2024-03-29T13:12:24;3.57;;;2.40;;
21101;SDS011;10709;49.006;12.100;2024-03-29T13:14:50;2.87;;;1.70;;
21101;SDS011;10709;49.006;12.100;2024-03-29T13:17:16;3.60;;;1.60;;
21101;SDS011;10709;49.006;12.100;2024-03-29T13:19:41;2.27;;;1.60;;
21101;SDS011;10709;49.006;12.100;2024-03-29T13:22:07;2.37;;;1.70;;
21101;SDS011;10709;49.006;12.100;2024-03-29T13:24:32;1.93;;;1.50;;
21101;SDS011;10709;49.006;12.100;2024-03-29T13:26:58;1.90;;;1.50;;
21101;SDS011;10709;49.006;12.100;2024-03-29T13:29:25;2.87;;;1.90;;
21101;SDS011;10709;49.006;12.100;2024-03-29T13:31:51;1.90;;;1.70;;
21101;SDS011;10709;49.006;12.100;2024-03-29T13:34:17;3.23;;;1.70;;
21101;SDS011;10709;49.006;12.100;2024-03-29T13:36:43;2.70;;;2.10;;
21101;SDS011;10709;49.006;12.100;2024-03-29T13:39:11;2.37;;;1.60;;
21101;SDS011;10709;49.006;12.100;2024-03-29T13:41:38;2.20;;;1.50;;
21101;SDS011;10709;49.006;12.100;2024-03-29T13:44:05;2.93;;;1.53;;
21101;SDS011;10709;49.006;12.100;2024-03-29T13:46:34;2.40;;;1.60;;
21101;SDS011;10709;49.006;12.100;2024-03-29T13:49:01;4.23;;;1.60;;
21101;SDS011;10709;49.006;12.100;2024-03-29T13:51:28;5.53;;;1.83;;
21101;SDS011;10709;49.006;12.100;2024-03-29T13:53:54;2.50;;;1.60;;
21101;SDS011;10709;49.006;12.100;2024-03-29T13:56:20;2.37;;;1.60;;
21101;SDS011;10709;49.006;12.100;2024-03-29T13:58:46;2.17;;;1.40;;
21101;SDS011;10709;49.006;12.100;2024-03-29T14:01:12;3.27;;;1.40;;
21101;SDS011;10709;49.006;12.100;2024-03-29T14:03:38;2.23;;;1.60;;
21101;SDS011;10709;49.006;12.100;2024-03-29T14:06:03;2.17;;;1.40;;
21101;SDS011;10709;49.006;12.100;2024-03-29T14:08:30;2.77;;;1.40;;
21101;SDS011;10709;49.006;12.100;2024-03-29T14:10:58;2.27;;;1.40;;
21101;SDS011;10709;49.006;12.100;2024-03-29T14:13:24;2.57;;;1.40;;
21101;SDS011;10709;49.006;12.100;2024-03-29T14:15:49;3.60;;;1.40;;
21101;SDS011;10709;49.006;12.100;2024-03-29T14:18:16;2.10;;;1.53;;
21101;SDS011;10709;49.006;12.100;2024-03-29T14:20:42;2.87;;;1.40;;
21101;SDS011;10709;49.006;12.100;2024-03-29T14:23:07;1.77;;;1.27;;
21101;SDS011;10709;49.006;12.100;2024-03-29T14:25:35;2.13;;;1.40;;
21101;SDS011;10709;49.006;12.100;2024-03-29T14:28:02;2.03;;;1.67;;
21101;SDS011;10709;49.006;12.100;2024-03-29T14:30:29;1.70;;;1.40;;
21101;SDS011;10709;49.006;12.100;2024-03-29T14:32:55;1.60;;;1.40;;
21101;SDS011;10709;49.006;12.100;2024-03-29T14:35:22;2.17;;;1.50;;
21101;SDS011;10709;49.006;12.100;2024-03-29T14:37:51;2.50;;;1.33;;
21101;SDS011;10709;49.006;12.100;2024-03-29T14:40:16;1.40;;;1.30;;
21101;SDS011;10709;49.006;12.100;2024-03-29T14:42:42;2.10;;;1.60;;
21101;SDS011;10709;49.006;12.100;2024-03-29T14:45:08;3.07;;;1.70;;
21101;SDS011;10709;49.006;12.100;2024-03-29T14:47:37;3.63;;;1.37;;